createdAt,value
2022-07-28T00:00:31.158Z,170
2022-07-28T00:01:00.929Z,170
2022-07-28T00:01:32.471Z,170
2022-07-28T00:02:02.981Z,170
2022-07-28T00:02:34.694Z,170
2022-07-28T00:03:04.891Z,170
2022-07-28T00:03:38.232Z,170
2022-07-28T00:04:07.047Z,170
2022-07-28T00:04:37.869Z,170
2022-07-28T00:05:10.697Z,170
2022-07-28T00:05:40.050Z,170
2022-07-28T00:06:12.247Z,170
2022-07-28T00:06:42.107Z,170
2022-07-28T00:07:15.526Z,170
2022-07-28T00:07:43.818Z,170
2022-07-28T00:08:14.861Z,170
2022-07-28T00:08:46.437Z,170
2022-07-28T00:09:16.825Z,170
2022-07-28T00:09:48.533Z,170
2022-07-28T00:10:20.819Z,170
2022-07-28T00:10:50.411Z,170
2022-07-28T00:11:20.823Z,170
2022-07-28T00:11:54.713Z,170
2022-07-28T00:12:22.809Z,170
2022-07-28T00:12:54.823Z,170
2022-07-28T00:13:24.801Z,170
2022-07-28T00:13:56.445Z,170
2022-07-28T00:14:26.818Z,170
2022-07-28T00:14:58.521Z,170
2022-07-28T00:15:30.848Z,170
2022-07-28T00:16:00.515Z,170
2022-07-28T00:16:30.935Z,170
2022-07-28T00:17:05.601Z,170
2022-07-28T00:17:32.822Z,170
2022-07-28T00:18:05.512Z,170
2022-07-28T00:18:34.830Z,170
2022-07-28T00:19:08.524Z,170
2022-07-28T00:19:36.815Z,170
2022-07-28T00:20:08.012Z,170
2022-07-28T00:20:42.833Z,170
2022-07-28T00:21:09.804Z,170
2022-07-28T00:21:42.628Z,170
2022-07-28T00:22:11.828Z,170
2022-07-28T00:22:43.517Z,170
2022-07-28T00:23:13.854Z,170
2022-07-28T00:23:45.397Z,170
2022-07-28T00:24:16.240Z,170
2022-07-28T00:24:49.220Z,170
2022-07-28T00:25:18.020Z,170
2022-07-28T00:25:50.502Z,170
2022-07-28T00:26:19.805Z,170
2022-07-28T00:26:51.434Z,170
2022-07-28T00:27:27.093Z,170
2022-07-28T00:27:54.219Z,170
2022-07-28T00:28:23.801Z,170
2022-07-28T00:28:55.531Z,170
2022-07-28T00:29:25.801Z,170
2022-07-28T00:29:57.498Z,170
2022-07-28T00:30:28.405Z,170
2022-07-28T00:31:05.108Z,170
2022-07-28T00:31:30.759Z,170
2022-07-28T00:32:00.905Z,170
2022-07-28T00:32:32.447Z,170
2022-07-28T00:33:02.969Z,170
2022-07-28T00:33:34.749Z,170
2022-07-28T00:34:04.807Z,170
2022-07-28T00:34:36.544Z,170
2022-07-28T00:35:08.167Z,170
2022-07-28T00:35:39.601Z,170
2022-07-28T00:36:11.511Z,170
2022-07-28T00:36:40.528Z,170
2022-07-28T00:37:13.355Z,170
2022-07-28T00:37:42.890Z,170
2022-07-28T00:38:12.825Z,170
2022-07-28T00:38:45.867Z,170
2022-07-28T00:39:15.419Z,170
2022-07-28T00:39:46.927Z,170
2022-07-28T00:40:17.679Z,170
2022-07-28T00:40:47.801Z,170
2022-07-28T00:41:20.513Z,170
2022-07-28T00:41:50.912Z,170
2022-07-28T00:42:21.435Z,170
2022-07-28T00:42:52.715Z,170
2022-07-28T00:43:24.449Z,170
2022-07-28T00:43:53.877Z,170
2022-07-28T00:44:25.433Z,170
2022-07-28T00:44:55.873Z,170
2022-07-28T00:45:27.957Z,170
2022-07-28T00:45:58.822Z,170
2022-07-28T00:46:30.472Z,170
2022-07-28T00:46:59.966Z,170
2022-07-28T00:47:34.035Z,170
2022-07-28T00:48:02.515Z,170
2022-07-28T00:48:33.550Z,170
2022-07-28T00:49:03.872Z,170
2022-07-28T00:49:37.711Z,170
2022-07-28T00:50:06.244Z,170
2022-07-28T00:50:36.984Z,170
2022-07-28T00:51:08.428Z,170
2022-07-28T00:51:40.858Z,170
2022-07-28T00:52:11.459Z,170
2022-07-28T00:52:40.816Z,170
2022-07-28T00:53:12.975Z,170
2022-07-28T00:53:42.804Z,170
2022-07-28T00:54:14.795Z,170
2022-07-28T00:54:44.900Z,170
2022-07-28T00:55:16.599Z,170
2022-07-28T00:56:05.353Z,170
2022-07-28T00:56:18.512Z,171
2022-07-28T00:56:49.858Z,171
2022-07-28T00:57:21.546Z,171
2022-07-28T00:57:52.041Z,171
2022-07-28T00:58:23.100Z,171
2022-07-28T00:58:52.808Z,171
2022-07-28T00:59:24.422Z,171
2022-07-28T00:59:54.797Z,171
2022-07-28T01:00:29.155Z,171
2022-07-28T01:00:56.926Z,171
2022-07-28T01:01:29.648Z,171
2022-07-28T01:01:59.989Z,171
2022-07-28T01:02:30.541Z,171
2022-07-28T01:03:04.003Z,170
2022-07-28T01:03:32.516Z,170
2022-07-28T01:04:02.955Z,170
2022-07-28T01:04:34.801Z,170
2022-07-28T01:05:06.002Z,170
2022-07-28T01:05:43.794Z,171
2022-07-28T01:06:06.853Z,171
2022-07-28T01:06:38.707Z,171
2022-07-28T01:07:09.887Z,171
2022-07-28T01:07:40.522Z,171
2022-07-28T01:08:10.820Z,171
2022-07-28T01:08:49.094Z,171
2022-07-28T01:09:12.877Z,171
2022-07-28T01:09:43.824Z,171
2022-07-28T01:10:16.655Z,171
2022-07-28T01:10:45.967Z,171
2022-07-28T01:11:17.534Z,170
2022-07-28T01:11:48.728Z,171
2022-07-28T01:12:23.442Z,171
2022-07-28T01:12:49.851Z,171
2022-07-28T01:13:20.821Z,171
2022-07-28T01:13:52.530Z,171
2022-07-28T01:14:22.796Z,171
2022-07-28T01:14:55.394Z,171
2022-07-28T01:15:25.346Z,171
2022-07-28T01:15:56.587Z,171
2022-07-28T01:16:26.886Z,171
2022-07-28T01:16:58.459Z,171
2022-07-28T01:17:30.815Z,171
2022-07-28T01:18:01.394Z,171
2022-07-28T01:18:30.820Z,171
2022-07-28T01:19:03.207Z,171
2022-07-28T01:19:32.828Z,171
2022-07-28T01:20:05.265Z,171
2022-07-28T01:20:41.735Z,171
2022-07-28T01:21:06.453Z,171
2022-07-28T01:21:37.758Z,171
2022-07-28T01:22:09.338Z,171
2022-07-28T01:22:39.888Z,171
2022-07-28T01:23:10.539Z,171
2022-07-28T01:23:40.831Z,171
2022-07-28T01:24:12.602Z,171
2022-07-28T01:24:42.993Z,171
2022-07-28T01:25:14.873Z,171
2022-07-28T01:25:48.081Z,171
2022-07-28T01:26:17.669Z,171
2022-07-28T01:26:47.810Z,171
2022-07-28T01:27:18.616Z,171
2022-07-28T01:27:49.895Z,171
2022-07-28T01:28:20.622Z,171
2022-07-28T01:28:54.004Z,171
2022-07-28T01:29:24.618Z,171
2022-07-28T01:29:52.894Z,171
2022-07-28T01:30:27.693Z,171
2022-07-28T01:30:55.181Z,171
2022-07-28T01:31:26.699Z,171
2022-07-28T01:31:56.812Z,171
2022-07-28T01:32:28.505Z,171
2022-07-28T01:33:01.959Z,171
2022-07-28T01:33:30.777Z,170
2022-07-28T01:34:00.839Z,170
2022-07-28T01:34:32.556Z,170
2022-07-28T01:35:05.464Z,170
2022-07-28T01:35:36.138Z,170
2022-07-28T01:36:04.882Z,170
2022-07-28T01:36:35.802Z,170
2022-07-28T01:37:07.532Z,170
2022-07-28T01:37:38.160Z,170
2022-07-28T01:38:10.869Z,170
2022-07-28T01:38:39.816Z,170
2022-07-28T01:39:12.520Z,170
2022-07-28T01:39:42.616Z,170
2022-07-28T01:40:14.743Z,171
2022-07-28T01:40:43.823Z,139
2022-07-28T01:41:15.461Z,136
2022-07-28T01:41:46.963Z,160
2022-07-28T01:42:17.469Z,160
2022-07-28T01:42:47.888Z,159
2022-07-28T01:43:20.600Z,159
2022-07-28T01:43:49.908Z,159
2022-07-28T01:44:21.506Z,160
2022-07-28T01:44:51.894Z,160
2022-07-28T01:45:24.503Z,159
2022-07-28T01:45:54.043Z,159
2022-07-28T01:46:25.670Z,159
2022-07-28T01:46:55.960Z,159
2022-07-28T01:47:27.545Z,159
2022-07-28T01:47:57.969Z,160
2022-07-28T01:48:32.625Z,159
2022-07-28T01:49:00.031Z,159
2022-07-28T01:49:32.777Z,159
2022-07-28T01:50:03.739Z,159
2022-07-28T01:50:33.165Z,160
2022-07-28T01:51:05.512Z,160
2022-07-28T01:51:34.940Z,159
2022-07-28T01:52:06.462Z,159
2022-07-28T01:52:36.887Z,159
2022-07-28T01:53:08.764Z,159
2022-07-28T01:53:40.221Z,159
2022-07-28T01:54:12.800Z,159
2022-07-28T01:54:41.908Z,159
2022-07-28T01:55:12.055Z,159
2022-07-28T01:55:43.475Z,159
2022-07-28T01:56:13.833Z,159
2022-07-28T01:56:45.411Z,159
2022-07-28T01:57:15.801Z,159
2022-07-28T01:57:48.305Z,159
2022-07-28T01:58:17.831Z,159
2022-07-28T01:58:52.337Z,159
2022-07-28T01:59:19.986Z,159
2022-07-28T01:59:50.850Z,159
2022-07-28T02:00:31.029Z,160
2022-07-28T02:00:57.810Z,161
2022-07-28T02:01:24.544Z,160
2022-07-28T02:01:54.905Z,160
2022-07-28T02:02:27.569Z,160
2022-07-28T02:02:56.820Z,160
2022-07-28T02:03:28.550Z,160
2022-07-28T02:03:59.950Z,160
2022-07-28T02:04:30.814Z,160
2022-07-28T02:05:01.601Z,160
2022-07-28T02:05:32.732Z,160
2022-07-28T02:06:02.918Z,160
2022-07-28T02:06:34.677Z,160
2022-07-28T02:07:04.837Z,161
2022-07-28T02:07:36.491Z,161
2022-07-28T02:08:09.066Z,161
2022-07-28T02:08:38.504Z,161
2022-07-28T02:09:09.778Z,161
2022-07-28T02:09:40.475Z,161
2022-07-28T02:10:12.170Z,161
2022-07-28T02:10:42.833Z,161
2022-07-28T02:11:13.704Z,160
2022-07-28T02:11:45.310Z,161
2022-07-28T02:12:14.951Z,160
2022-07-28T02:12:47.383Z,182
2022-07-28T02:13:16.806Z,244
2022-07-28T02:13:48.950Z,245
2022-07-28T02:14:19.825Z,245
2022-07-28T02:14:50.405Z,292
2022-07-28T02:15:22.637Z,289
2022-07-28T02:15:52.494Z,289
2022-07-28T02:16:22.886Z,294
2022-07-28T02:16:54.375Z,294
2022-07-28T02:17:26.820Z,293
2022-07-28T02:17:56.386Z,294
2022-07-28T02:18:26.780Z,294
2022-07-28T02:18:58.514Z,294
2022-07-28T02:19:29.865Z,294
2022-07-28T02:20:01.381Z,294
2022-07-28T02:20:41.973Z,294
2022-07-28T02:21:06.672Z,293
2022-07-28T02:21:32.804Z,293
2022-07-28T02:22:05.523Z,293
2022-07-28T02:22:34.797Z,293
2022-07-28T02:23:06.405Z,293
2022-07-28T02:23:36.829Z,293
2022-07-28T02:24:09.628Z,293
2022-07-28T02:24:39.921Z,293
2022-07-28T02:25:12.859Z,293
2022-07-28T02:25:42.944Z,293
2022-07-28T02:26:12.411Z,293
2022-07-28T02:26:42.792Z,293
2022-07-28T02:27:15.097Z,293
2022-07-28T02:27:44.904Z,293
2022-07-28T02:28:16.436Z,293
2022-07-28T02:28:48.858Z,293
2022-07-28T02:29:40.451Z,293
2022-07-28T02:30:21.069Z,293
2022-07-28T02:30:52.128Z,293
2022-07-28T02:31:26.461Z,293
2022-07-28T02:31:52.801Z,294
2022-07-28T02:32:28.190Z,294
2022-07-28T02:32:54.825Z,294
2022-07-28T02:33:59.885Z,294
2022-07-28T02:34:31.908Z,294
2022-07-28T02:34:59.793Z,294
2022-07-28T02:35:32.221Z,294
2022-07-28T02:36:02.511Z,294
2022-07-28T02:36:32.029Z,294
2022-07-28T02:37:03.480Z,294
2022-07-28T02:37:34.842Z,294
2022-07-28T02:38:05.319Z,294
2022-07-28T02:38:36.741Z,294
2022-07-28T02:39:07.519Z,294
2022-07-28T02:39:38.091Z,294
2022-07-28T02:40:10.699Z,294
2022-07-28T02:40:42.629Z,294
2022-07-28T02:41:11.399Z,294
2022-07-28T02:41:47.723Z,294
2022-07-28T02:42:14.484Z,294
2022-07-28T02:42:43.830Z,294
2022-07-28T02:43:15.414Z,294
2022-07-28T02:43:50.513Z,294
2022-07-28T02:44:17.640Z,294
2022-07-28T02:44:48.105Z,294
2022-07-28T02:45:20.899Z,293
2022-07-28T02:45:50.744Z,293
2022-07-28T02:46:21.439Z,293
2022-07-28T02:46:51.785Z,293
2022-07-28T02:47:23.973Z,293
2022-07-28T02:47:54.783Z,293
2022-07-28T02:48:26.405Z,294
2022-07-28T02:48:56.386Z,294
2022-07-28T02:49:28.537Z,294
2022-07-28T02:49:57.781Z,318
2022-07-28T02:50:30.573Z,319
2022-07-28T02:50:59.902Z,324
2022-07-28T02:51:31.376Z,323
2022-07-28T02:52:02.195Z,323
2022-07-28T02:52:36.325Z,324
2022-07-28T02:53:15.545Z,316
2022-07-28T02:53:34.917Z,316
2022-07-28T02:54:07.404Z,317
2022-07-28T02:54:36.988Z,317
2022-07-28T02:55:08.665Z,317
2022-07-28T02:55:40.032Z,317
2022-07-28T02:56:10.508Z,316
2022-07-28T02:56:40.820Z,316
2022-07-28T02:57:12.408Z,316
2022-07-28T02:57:42.778Z,316
2022-07-28T02:58:14.369Z,316
2022-07-28T02:58:44.816Z,316
2022-07-28T02:59:16.504Z,316
2022-07-28T02:59:46.795Z,316
2022-07-28T03:00:19.118Z,316
2022-07-28T03:00:50.281Z,316
2022-07-28T03:01:20.736Z,316
2022-07-28T03:01:50.974Z,316
2022-07-28T03:02:29.377Z,316
2022-07-28T03:02:52.857Z,316
2022-07-28T03:03:24.755Z,316
2022-07-28T03:03:55.518Z,316
2022-07-28T03:04:26.542Z,316
2022-07-28T03:04:57.467Z,316
2022-07-28T03:05:28.854Z,316
2022-07-28T03:05:59.900Z,316
2022-07-28T03:06:30.604Z,316
2022-07-28T03:07:00.970Z,316
2022-07-28T03:07:32.532Z,316
2022-07-28T03:08:03.014Z,317
2022-07-28T03:08:35.725Z,316
2022-07-28T03:09:04.892Z,325
2022-07-28T03:09:37.453Z,325
2022-07-28T03:10:06.843Z,325
2022-07-28T03:10:38.945Z,325
2022-07-28T03:11:09.806Z,324
2022-07-28T03:11:40.460Z,324
2022-07-28T03:12:10.863Z,324
2022-07-28T03:12:42.839Z,324
2022-07-28T03:13:12.874Z,324
2022-07-28T03:13:44.588Z,324
2022-07-28T03:14:15.530Z,324
2022-07-28T03:14:46.511Z,324
2022-07-28T03:15:18.122Z,324
2022-07-28T03:15:48.912Z,324
2022-07-28T03:16:20.154Z,324
2022-07-28T03:16:55.499Z,324
2022-07-28T03:17:20.837Z,189
2022-07-28T03:17:52.502Z,189
2022-07-28T03:18:23.103Z,189
2022-07-28T03:18:54.574Z,188
2022-07-28T03:19:24.829Z,188
2022-07-28T03:19:57.449Z,185
2022-07-28T03:20:34.561Z,185
2022-07-28T03:20:59.075Z,187
2022-07-28T03:21:29.873Z,187
2022-07-28T03:22:00.628Z,237
2022-07-28T03:22:30.869Z,249
2022-07-28T03:23:02.848Z,249
2022-07-28T03:23:32.854Z,249
2022-07-28T03:24:04.576Z,249
2022-07-28T03:24:34.902Z,179
2022-07-28T03:25:06.565Z,178
2022-07-28T03:25:38.062Z,96
2022-07-28T03:26:08.574Z,91
2022-07-28T03:26:39.848Z,92
2022-07-28T03:27:10.577Z,92
2022-07-28T03:27:41.210Z,93
2022-07-28T03:28:12.581Z,93
2022-07-28T03:28:42.886Z,93
2022-07-28T03:29:14.483Z,92
2022-07-28T03:29:44.855Z,93
2022-07-28T03:30:18.113Z,92
2022-07-28T03:30:46.973Z,92
2022-07-28T03:31:18.542Z,92
2022-07-28T03:31:50.268Z,92
2022-07-28T03:32:20.544Z,92
2022-07-28T03:32:50.937Z,93
2022-07-28T03:33:25.023Z,93
2022-07-28T03:33:53.060Z,92
2022-07-28T03:34:25.135Z,92
2022-07-28T03:34:55.053Z,92
2022-07-28T03:35:26.873Z,92
2022-07-28T03:36:00.118Z,92
2022-07-28T03:36:28.703Z,92
2022-07-28T03:37:00.077Z,92
2022-07-28T03:37:30.559Z,92
2022-07-28T03:38:01.091Z,92
2022-07-28T03:38:32.364Z,92
2022-07-28T03:39:03.173Z,128
2022-07-28T03:39:34.859Z,120
2022-07-28T03:40:05.354Z,118
2022-07-28T03:40:42.093Z,119
2022-07-28T03:41:08.363Z,119
2022-07-28T03:41:38.723Z,118
2022-07-28T03:42:10.045Z,119
2022-07-28T03:42:40.697Z,119
2022-07-28T03:43:10.986Z,119
2022-07-28T03:43:47.339Z,119
2022-07-28T03:44:13.233Z,119
2022-07-28T03:44:44.564Z,119
2022-07-28T03:45:16.213Z,119
2022-07-28T03:45:47.195Z,119
2022-07-28T03:46:17.117Z,119
2022-07-28T03:46:48.703Z,119
2022-07-28T03:47:19.954Z,137
2022-07-28T03:47:51.194Z,137
2022-07-28T03:48:21.019Z,137
2022-07-28T03:48:52.567Z,137
2022-07-28T03:49:23.101Z,137
2022-07-28T03:49:54.683Z,138
2022-07-28T03:50:25.638Z,137
2022-07-28T03:50:58.236Z,137
2022-07-28T03:51:26.959Z,137
2022-07-28T03:51:58.386Z,137
2022-07-28T03:52:31.542Z,137
2022-07-28T03:53:00.041Z,102
2022-07-28T03:53:30.993Z,100
2022-07-28T03:54:04.751Z,117
2022-07-28T03:54:33.061Z,117
2022-07-28T03:55:04.671Z,149
2022-07-28T03:55:37.282Z,148
2022-07-28T03:56:06.664Z,148
2022-07-28T03:56:37.047Z,148
2022-07-28T03:57:08.495Z,148
2022-07-28T03:57:42.807Z,149
2022-07-28T03:58:11.507Z,164
2022-07-28T03:58:41.365Z,164
2022-07-28T03:59:13.540Z,184
2022-07-28T03:59:43.032Z,197
2022-07-28T04:00:15.416Z,83
2022-07-28T04:00:54.661Z,82
2022-07-28T04:01:16.897Z,115
2022-07-28T04:01:47.121Z,115
2022-07-28T04:02:18.662Z,113
2022-07-28T04:02:50.061Z,111
2022-07-28T04:03:35.271Z,112
2022-07-28T04:03:51.040Z,112
2022-07-28T04:04:26.489Z,113
2022-07-28T04:04:53.080Z,113
2022-07-28T04:05:24.940Z,112
2022-07-28T04:05:55.058Z,117
2022-07-28T04:06:26.627Z,118
2022-07-28T04:06:56.983Z,118
2022-07-28T04:07:28.763Z,118
2022-07-28T04:08:00.467Z,118
2022-07-28T04:08:30.653Z,265
2022-07-28T04:09:01.123Z,265
2022-07-28T04:09:32.696Z,263
2022-07-28T04:10:03.060Z,263
2022-07-28T04:10:34.942Z,263
2022-07-28T04:11:05.040Z,263
2022-07-28T04:11:36.807Z,265
2022-07-28T04:12:07.444Z,263
2022-07-28T04:12:38.618Z,263
2022-07-28T04:13:10.057Z,263
2022-07-28T04:13:40.694Z,263
2022-07-28T04:14:14.686Z,263
2022-07-28T04:14:43.780Z,263
2022-07-28T04:15:14.250Z,263
2022-07-28T04:15:45.579Z,263
2022-07-28T04:16:15.258Z,263
2022-07-28T04:16:46.729Z,263
2022-07-28T04:17:17.020Z,263
2022-07-28T04:17:49.607Z,250
2022-07-28T04:18:21.211Z,250
2022-07-28T04:18:51.626Z,250
2022-07-28T04:19:21.923Z,250
2022-07-28T04:19:52.681Z,250
2022-07-28T04:20:23.254Z,250
2022-07-28T04:20:54.640Z,250
2022-07-28T04:21:25.037Z,250
2022-07-28T04:21:56.822Z,250
2022-07-28T04:22:26.961Z,250
2022-07-28T04:22:58.962Z,250
2022-07-28T04:23:30.063Z,250
2022-07-28T04:24:02.162Z,250
2022-07-28T04:24:31.852Z,250
2022-07-28T04:25:03.289Z,250
2022-07-28T04:25:33.656Z,250
2022-07-28T04:26:04.516Z,250
2022-07-28T04:26:34.952Z,250
2022-07-28T04:27:06.542Z,250
2022-07-28T04:27:36.917Z,250
2022-07-28T04:28:08.596Z,250
2022-07-28T04:28:40.792Z,250
2022-07-28T04:29:10.609Z,250
2022-07-28T04:29:41.200Z,250
2022-07-28T04:30:14.561Z,250
2022-07-28T04:30:44.081Z,250
2022-07-28T04:31:14.563Z,250
2022-07-28T04:31:46.185Z,250
2022-07-28T04:32:17.562Z,250
2022-07-28T04:32:47.382Z,250
2022-07-28T04:33:20.161Z,250
2022-07-28T04:33:49.903Z,247
2022-07-28T04:34:20.605Z,230
2022-07-28T04:34:50.917Z,232
2022-07-28T04:35:24.770Z,248
2022-07-28T04:35:53.081Z,248
2022-07-28T04:36:24.647Z,248
2022-07-28T04:36:54.977Z,248
2022-07-28T04:37:26.587Z,247
2022-07-28T04:37:57.838Z,247
2022-07-28T04:38:29.309Z,248
2022-07-28T04:39:00.065Z,237
2022-07-28T04:39:30.495Z,237
2022-07-28T04:40:01.337Z,237
2022-07-28T04:40:41.938Z,236
2022-07-28T04:41:02.987Z,237
2022-07-28T04:41:35.869Z,237
2022-07-28T04:42:05.056Z,236
2022-07-28T04:42:37.578Z,237
2022-07-28T04:43:06.907Z,237
2022-07-28T04:43:38.572Z,237
2022-07-28T04:44:11.910Z,237
2022-07-28T04:44:41.357Z,237
2022-07-28T04:45:11.448Z,237
2022-07-28T04:45:53.093Z,238
2022-07-28T04:46:15.147Z,237
2022-07-28T04:46:46.606Z,238
2022-07-28T04:47:14.904Z,238
2022-07-28T04:47:45.897Z,238
2022-07-28T04:48:17.657Z,238
2022-07-28T04:48:48.001Z,238
2022-07-28T04:49:20.546Z,260
2022-07-28T04:49:50.026Z,82
2022-07-28T04:50:21.794Z,356
2022-07-28T04:50:52.119Z,357
2022-07-28T04:51:24.550Z,357
2022-07-28T04:51:53.960Z,356
2022-07-28T04:52:25.821Z,290
2022-07-28T04:52:55.954Z,259
2022-07-28T04:53:28.510Z,259
2022-07-28T04:53:59.021Z,260
2022-07-28T04:54:33.581Z,259
2022-07-28T04:54:59.952Z,259
2022-07-28T04:55:32.435Z,259
2022-07-28T04:56:02.956Z,259
2022-07-28T04:56:33.134Z,260
2022-07-28T04:57:10.376Z,280
2022-07-28T04:57:36.463Z,290
2022-07-28T04:58:06.677Z,271
2022-07-28T04:58:36.941Z,272
2022-07-28T04:59:08.935Z,259
2022-07-28T04:59:39.991Z,257
2022-07-28T05:00:12.325Z,244
2022-07-28T05:00:50.383Z,241
2022-07-28T05:01:12.590Z,243
2022-07-28T05:01:42.918Z,241
2022-07-28T05:02:14.633Z,276
2022-07-28T05:02:44.928Z,268
2022-07-28T05:03:16.634Z,268
2022-07-28T05:03:46.920Z,271
2022-07-28T05:04:19.118Z,270
2022-07-28T05:04:50.943Z,270
2022-07-28T05:05:20.836Z,270
2022-07-28T05:05:53.926Z,270
2022-07-28T05:06:23.974Z,269
2022-07-28T05:06:53.835Z,270
2022-07-28T05:07:24.533Z,270
2022-07-28T05:07:54.913Z,269
2022-07-28T05:08:26.774Z,270
2022-07-28T05:08:56.927Z,269
2022-07-28T05:09:28.621Z,269
2022-07-28T05:10:00.058Z,258
2022-07-28T05:10:30.695Z,259
2022-07-28T05:11:00.978Z,259
2022-07-28T05:11:33.516Z,259
2022-07-28T05:12:03.018Z,259
2022-07-28T05:12:34.930Z,259
2022-07-28T05:13:04.911Z,259
2022-07-28T05:13:36.601Z,258
2022-07-28T05:14:07.806Z,258
2022-07-28T05:14:38.621Z,259
2022-07-28T05:15:11.146Z,259
2022-07-28T05:15:40.634Z,259
2022-07-28T05:16:13.133Z,259
2022-07-28T05:16:43.361Z,258
2022-07-28T05:17:12.913Z,250
2022-07-28T05:17:44.483Z,246
2022-07-28T05:18:15.094Z,281
2022-07-28T05:18:47.778Z,292
2022-07-28T05:19:17.616Z,296
2022-07-28T05:19:51.413Z,304
2022-07-28T05:20:20.115Z,303
2022-07-28T05:20:52.040Z,305
2022-07-28T05:21:22.843Z,307
2022-07-28T05:21:51.951Z,311
2022-07-28T05:22:25.471Z,312
2022-07-28T05:22:53.933Z,312
2022-07-28T05:23:24.919Z,311
2022-07-28T05:23:58.528Z,311
2022-07-28T05:24:26.955Z,310
2022-07-28T05:24:57.896Z,290
2022-07-28T05:25:30.688Z,293
2022-07-28T05:26:01.252Z,293
2022-07-28T05:26:31.617Z,293
2022-07-28T05:27:02.379Z,293
2022-07-28T05:27:33.665Z,288
2022-07-28T05:28:04.080Z,288
2022-07-28T05:28:36.498Z,288
2022-07-28T05:29:06.066Z,288
2022-07-28T05:29:47.488Z,288
2022-07-28T05:30:09.681Z,288
2022-07-28T05:30:41.379Z,288
2022-07-28T05:31:10.499Z,288
2022-07-28T05:31:42.672Z,288
2022-07-28T05:32:16.388Z,288
2022-07-28T05:32:44.600Z,288
2022-07-28T05:33:14.113Z,288
2022-07-28T05:33:45.878Z,288
2022-07-28T05:34:16.380Z,289
2022-07-28T05:34:47.763Z,293
2022-07-28T05:35:18.260Z,293
2022-07-28T05:35:52.665Z,293
2022-07-28T05:36:20.272Z,293
2022-07-28T05:36:51.336Z,294
2022-07-28T05:37:24.743Z,294
2022-07-28T05:37:53.063Z,109
2022-07-28T05:38:25.002Z,17
2022-07-28T05:38:56.177Z,20
2022-07-28T05:39:27.075Z,14
2022-07-28T05:39:57.025Z,14
2022-07-28T05:40:41.702Z,15
2022-07-28T05:41:01.030Z,16
2022-07-28T05:41:30.766Z,17
2022-07-28T05:42:01.118Z,14
2022-07-28T05:42:32.697Z,14
2022-07-28T05:43:03.146Z,15
2022-07-28T05:43:35.896Z,15
2022-07-28T05:44:05.026Z,15
2022-07-28T05:44:38.560Z,15
2022-07-28T05:45:16.270Z,16
2022-07-28T05:45:39.270Z,11
2022-07-28T05:46:11.185Z,303
2022-07-28T05:46:40.739Z,83
2022-07-28T05:47:11.055Z,79
2022-07-28T05:47:43.062Z,53
2022-07-28T05:48:13.653Z,49
2022-07-28T05:48:45.611Z,49
2022-07-28T05:49:15.520Z,47
2022-07-28T05:49:46.750Z,3
2022-07-28T05:50:17.727Z,309
2022-07-28T05:50:48.724Z,309
2022-07-28T05:51:21.708Z,30
2022-07-28T05:51:53.812Z,34
2022-07-28T05:52:21.097Z,34
2022-07-28T05:52:53.174Z,35
2022-07-28T05:53:23.663Z,35
2022-07-28T05:53:54.078Z,86
2022-07-28T05:54:25.882Z,85
2022-07-28T05:54:56.079Z,86
2022-07-28T05:55:29.582Z,214
2022-07-28T05:56:01.730Z,42
2022-07-28T05:56:32.783Z,85
2022-07-28T05:57:00.668Z,59
2022-07-28T05:57:31.069Z,25
2022-07-28T05:58:03.626Z,9
2022-07-28T05:58:33.085Z,8
2022-07-28T05:59:06.580Z,8
2022-07-28T05:59:36.213Z,8
2022-07-28T06:00:07.273Z,8
2022-07-28T06:00:50.376Z,9
2022-07-28T06:01:08.182Z,8
2022-07-28T06:01:40.791Z,8
2022-07-28T06:02:12.027Z,43
2022-07-28T06:02:41.198Z,346
2022-07-28T06:03:12.744Z,321
2022-07-28T06:03:47.833Z,324
2022-07-28T06:04:26.865Z,283
2022-07-28T06:04:45.049Z,303
2022-07-28T06:05:16.304Z,320
2022-07-28T06:05:59.508Z,322
2022-07-28T06:06:18.542Z,321
2022-07-28T06:06:50.719Z,334
2022-07-28T06:07:22.220Z,332
2022-07-28T06:07:53.892Z,332
2022-07-28T06:08:27.185Z,332
2022-07-28T06:08:54.309Z,332
2022-07-28T06:09:25.715Z,332
2022-07-28T06:09:55.074Z,332
2022-07-28T06:10:27.677Z,331
2022-07-28T06:10:57.122Z,331
2022-07-28T06:11:28.793Z,331
2022-07-28T06:12:01.096Z,331
2022-07-28T06:12:30.660Z,331
2022-07-28T06:13:01.967Z,331
2022-07-28T06:13:32.903Z,332
2022-07-28T06:14:03.965Z,332
2022-07-28T06:14:35.948Z,332
2022-07-28T06:15:05.433Z,332
2022-07-28T06:15:40.334Z,331
2022-07-28T06:16:12.772Z,70
2022-07-28T06:16:38.661Z,55
2022-07-28T06:17:10.753Z,61
2022-07-28T06:17:40.092Z,39
2022-07-28T06:18:11.792Z,101
2022-07-28T06:18:43.448Z,109
2022-07-28T06:19:13.714Z,109
2022-07-28T06:19:44.616Z,109
2022-07-28T06:20:15.925Z,109
2022-07-28T06:20:46.379Z,108
2022-07-28T06:21:18.780Z,43
2022-07-28T06:21:48.064Z,293
2022-07-28T06:22:21.133Z,312
2022-07-28T06:22:52.277Z,311
2022-07-28T06:23:22.060Z,312
2022-07-28T06:23:54.150Z,312
2022-07-28T06:24:24.670Z,8
2022-07-28T06:24:54.047Z,40
2022-07-28T06:25:26.942Z,48
2022-07-28T06:25:56.550Z,326
2022-07-28T06:26:28.222Z,328
2022-07-28T06:26:58.069Z,66
2022-07-28T06:27:31.612Z,59
2022-07-28T06:28:00.156Z,59
2022-07-28T06:28:31.166Z,8
2022-07-28T06:29:05.151Z,8
2022-07-28T06:29:33.109Z,8
2022-07-28T06:30:04.391Z,48
2022-07-28T06:30:37.689Z,49
2022-07-28T06:31:06.136Z,48
2022-07-28T06:31:37.725Z,48
2022-07-28T06:32:08.123Z,170
2022-07-28T06:32:40.666Z,167
2022-07-28T06:33:16.762Z,160
2022-07-28T06:33:42.560Z,89
2022-07-28T06:34:12.565Z,90
2022-07-28T06:34:44.688Z,90
2022-07-28T06:35:14.288Z,90
2022-07-28T06:35:50.855Z,90
2022-07-28T06:36:16.070Z,89
2022-07-28T06:36:47.805Z,90
2022-07-28T06:37:18.350Z,91
2022-07-28T06:37:50.775Z,92
2022-07-28T06:38:20.873Z,90
2022-07-28T06:38:51.158Z,91
2022-07-28T06:39:25.865Z,91
2022-07-28T06:39:53.073Z,91
2022-07-28T06:40:26.482Z,94
2022-07-28T06:40:55.232Z,169
2022-07-28T06:41:28.691Z,169
2022-07-28T06:41:57.083Z,169
2022-07-28T06:42:30.451Z,169
2022-07-28T06:43:00.897Z,12
2022-07-28T06:43:30.707Z,15
2022-07-28T06:44:02.387Z,16
2022-07-28T06:44:54.998Z,22
2022-07-28T06:45:04.891Z,21
2022-07-28T06:45:35.605Z,230
2022-07-28T06:46:05.745Z,66
2022-07-28T06:46:37.381Z,16
2022-07-28T06:47:08.714Z,308
2022-07-28T06:47:38.043Z,309
2022-07-28T06:48:10.646Z,309
2022-07-28T06:48:40.124Z,309
2022-07-28T06:49:13.534Z,309
2022-07-28T06:49:42.379Z,309
2022-07-28T06:50:26.118Z,309
2022-07-28T06:50:46.180Z,309
2022-07-28T06:51:15.832Z,309
2022-07-28T06:51:46.029Z,309
2022-07-28T06:52:18.650Z,309
2022-07-28T06:52:48.093Z,309
2022-07-28T06:53:21.761Z,309
2022-07-28T06:53:51.214Z,67
2022-07-28T06:54:21.073Z,301
2022-07-28T06:54:52.645Z,354
2022-07-28T06:55:24.222Z,354
2022-07-28T06:55:54.760Z,355
2022-07-28T06:56:26.093Z,355
2022-07-28T06:56:56.756Z,356
2022-07-28T06:57:33.700Z,355
2022-07-28T06:57:58.651Z,355
2022-07-28T06:58:30.200Z,354
2022-07-28T06:59:00.782Z,354
2022-07-28T06:59:31.957Z,151
2022-07-28T07:00:03.469Z,268
2022-07-28T07:00:34.172Z,61
2022-07-28T07:01:08.293Z,97
2022-07-28T07:01:35.200Z,71
2022-07-28T07:02:06.065Z,260
2022-07-28T07:02:39.160Z,261
2022-07-28T07:03:09.815Z,59
2022-07-28T07:03:41.683Z,300
2022-07-28T07:04:11.099Z,319
2022-07-28T07:04:41.152Z,85
2022-07-28T07:05:12.673Z,84
2022-07-28T07:05:43.299Z,84
2022-07-28T07:06:16.050Z,130
2022-07-28T07:06:48.182Z,95
2022-07-28T07:07:17.771Z,100
2022-07-28T07:07:47.058Z,148
2022-07-28T07:08:19.829Z,321
2022-07-28T07:08:52.061Z,290
2022-07-28T07:09:20.765Z,306
2022-07-28T07:09:51.093Z,283
2022-07-28T07:10:29.269Z,280